createdAt,value
2016-08-05T00:00:22.383Z,22.35
2016-08-05T00:01:23.093Z,22.33
2016-08-05T00:02:23.063Z,22.38
2016-08-05T00:03:23.048Z,22.35
2016-08-05T00:04:23.035Z,22.38
2016-08-05T00:05:23.021Z,22.38
2016-08-05T00:06:23.003Z,22.38
2016-08-05T00:07:22.991Z,22.33
2016-08-05T00:08:22.970Z,22.36
2016-08-05T00:09:22.957Z,22.36
2016-08-05T00:10:22.945Z,22.38
2016-08-05T00:11:22.923Z,22.3
2016-08-05T00:12:22.911Z,22.39
2016-08-05T00:13:22.901Z,22.36
2016-08-05T00:14:22.881Z,22.3
2016-08-05T00:15:22.863Z,22.29
2016-08-05T00:16:22.854Z,22.31
2016-08-05T00:17:22.827Z,22.35
2016-08-05T00:18:22.823Z,22.38
2016-08-05T00:19:22.810Z,22.41
2016-08-05T00:20:22.793Z,22.38
2016-08-05T00:21:22.769Z,22.38
2016-08-05T00:22:22.755Z,22.31
2016-08-05T00:23:22.734Z,22.38
2016-08-05T00:24:22.729Z,22.38
2016-08-05T00:26:22.694Z,22.36
2016-08-05T00:27:22.678Z,22.36
2016-08-05T00:28:22.668Z,22.35
2016-08-05T00:29:21.934Z,22.36
2016-08-05T00:30:22.626Z,22.31
2016-08-05T00:31:22.626Z,22.42
2016-08-05T00:32:22.603Z,22.31
2016-08-05T00:33:22.581Z,22.35
2016-08-05T00:34:21.871Z,22.38
2016-08-05T00:35:21.842Z,22.36
2016-08-05T00:36:22.537Z,22.38
2016-08-05T00:37:22.523Z,22.36
2016-08-05T00:38:22.502Z,22.35
2016-08-05T00:39:22.486Z,22.41
2016-08-05T00:41:22.468Z,22.31
2016-08-05T00:42:22.447Z,22.35
2016-08-05T00:43:22.435Z,22.31
2016-08-05T00:44:22.411Z,22.33
2016-08-05T00:45:22.411Z,22.35
2016-08-05T00:46:22.386Z,22.36
2016-08-05T00:47:21.652Z,22.36
2016-08-05T00:48:22.348Z,22.35
2016-08-05T00:49:22.335Z,22.39
2016-08-05T00:50:22.319Z,22.42
2016-08-05T00:51:22.302Z,22.41
2016-08-05T00:52:21.584Z,22.36
2016-08-05T00:53:22.273Z,22.3
2016-08-05T00:54:22.251Z,22.36
2016-08-05T00:56:22.224Z,22.42
2016-08-05T00:57:22.213Z,22.31
2016-08-05T00:58:22.187Z,22.3
2016-08-05T00:59:22.172Z,22.38
2016-08-05T01:00:22.162Z,22.36
2016-08-05T01:01:22.152Z,22.46
2016-08-05T01:02:22.127Z,22.42
2016-08-05T01:03:22.116Z,22.41
2016-08-05T01:04:22.105Z,22.46
2016-08-05T01:05:22.083Z,22.45
2016-08-05T01:06:22.068Z,22.35
2016-08-05T01:07:21.343Z,22.33
2016-08-05T01:08:22.054Z,22.42
2016-08-05T01:09:22.021Z,22.42
2016-08-05T01:11:21.985Z,22.44
2016-08-05T01:12:21.980Z,22.46
2016-08-05T01:13:21.973Z,22.33
2016-08-05T01:14:21.944Z,22.44
2016-08-05T01:15:21.931Z,22.39
2016-08-05T01:16:21.925Z,22.46
2016-08-05T01:17:21.896Z,22.45
2016-08-05T01:18:21.887Z,22.44
2016-08-05T01:19:21.879Z,22.41
2016-08-05T01:20:21.855Z,22.45
2016-08-05T01:21:21.833Z,22.38
2016-08-05T01:22:21.112Z,22.36
2016-08-05T01:23:21.818Z,22.33
2016-08-05T01:24:21.093Z,22.44
2016-08-05T01:26:21.759Z,22.48
2016-08-05T01:27:21.747Z,22.39
2016-08-05T01:28:21.031Z,22.44
2016-08-05T01:29:21.715Z,22.42
2016-08-05T01:30:21.704Z,22.42
2016-08-05T01:31:21.684Z,22.44
2016-08-05T01:32:21.676Z,22.45
2016-08-05T01:33:21.652Z,22.46
2016-08-05T01:34:21.633Z,22.45
2016-08-05T01:35:21.622Z,22.42
2016-08-05T01:36:20.896Z,22.46
2016-08-05T01:37:21.590Z,22.39
2016-08-05T01:38:20.858Z,22.36
2016-08-05T01:39:21.562Z,22.42
2016-08-05T01:41:21.527Z,22.42
2016-08-05T01:42:21.511Z,22.36
2016-08-05T01:43:21.499Z,22.35
2016-08-05T01:44:21.477Z,22.44
2016-08-05T01:45:21.468Z,22.41
2016-08-05T01:46:21.465Z,22.39
2016-08-05T01:47:21.441Z,22.42
2016-08-05T01:48:20.708Z,22.45
2016-08-05T01:49:21.405Z,22.31
2016-08-05T01:50:21.387Z,22.44
2016-08-05T01:51:21.376Z,22.38
2016-08-05T01:52:21.357Z,22.46
2016-08-05T01:53:21.337Z,22.38
2016-08-05T01:54:21.354Z,22.42
2016-08-05T01:55:20.600Z,22.44
2016-08-05T01:56:21.296Z,22.39
2016-08-05T01:57:21.281Z,22.36
2016-08-05T01:58:21.271Z,22.45
2016-08-05T01:59:21.245Z,22.35
2016-08-05T02:00:21.234Z,22.44
2016-08-05T02:01:20.509Z,22.45
2016-08-05T02:02:21.214Z,22.41
2016-08-05T02:03:21.187Z,22.38
2016-08-05T02:04:21.177Z,22.38
2016-08-05T02:05:21.154Z,22.42
2016-08-05T02:06:20.457Z,22.45
2016-08-05T02:07:21.124Z,22.41
2016-08-05T02:08:21.113Z,22.35
2016-08-05T02:09:21.094Z,22.39
2016-08-05T02:10:21.094Z,22.35
2016-08-05T02:11:21.065Z,22.33
2016-08-05T02:12:20.332Z,22.38
2016-08-05T02:13:21.034Z,22.35
2016-08-05T02:14:21.026Z,22.41
2016-08-05T02:15:20.996Z,22.35
2016-08-05T02:16:20.270Z,22.35
2016-08-05T02:17:20.973Z,22.31
2016-08-05T02:18:20.957Z,22.35
2016-08-05T02:19:20.943Z,22.29
2016-08-05T02:20:20.928Z,22.35
2016-08-05T02:21:20.908Z,22.31
2016-08-05T02:22:20.899Z,22.29
2016-08-05T02:23:20.171Z,22.38
2016-08-05T02:24:20.874Z,22.41
2016-08-05T02:25:20.846Z,22.38
2016-08-05T02:26:20.127Z,22.33
2016-08-05T02:27:20.822Z,22.39
2016-08-05T02:28:20.800Z,22.3
2016-08-05T02:29:20.794Z,22.39
2016-08-05T02:30:20.058Z,22.39
2016-08-05T02:31:20.759Z,22.39
2016-08-05T02:32:20.739Z,22.35
2016-08-05T02:33:20.729Z,22.36
2016-08-05T02:34:20.709Z,22.3
2016-08-05T02:35:20.694Z,22.33
2016-08-05T02:36:20.669Z,22.38
2016-08-05T02:37:20.661Z,22.38
2016-08-05T02:38:20.642Z,22.35
2016-08-05T02:39:20.639Z,22.38
2016-08-05T02:40:20.616Z,22.36
2016-08-05T02:41:19.886Z,22.38
2016-08-05T02:42:20.579Z,22.3
2016-08-05T02:43:20.568Z,22.35
2016-08-05T02:44:20.547Z,22.36
2016-08-05T02:45:20.542Z,22.35
2016-08-05T02:46:20.521Z,22.36
2016-08-05T02:47:20.502Z,22.38
2016-08-05T02:48:20.491Z,22.29
2016-08-05T02:49:20.479Z,22.35
2016-08-05T02:50:20.469Z,22.39
2016-08-05T02:51:20.441Z,22.41
2016-08-05T02:52:20.429Z,22.29
2016-08-05T02:53:20.407Z,22.36
2016-08-05T02:54:20.397Z,22.31
2016-08-05T02:55:20.384Z,22.3
2016-08-05T02:56:20.371Z,22.33
2016-08-05T02:57:20.361Z,22.41
2016-08-05T02:58:20.331Z,22.41
2016-08-05T02:59:19.611Z,22.38
2016-08-05T03:00:19.595Z,22.36
2016-08-05T03:01:20.281Z,22.41
2016-08-05T03:02:19.567Z,22.35
2016-08-05T03:03:20.258Z,22.29
2016-08-05T03:04:20.244Z,22.38
2016-08-05T03:05:20.227Z,22.38
2016-08-05T03:06:20.205Z,22.33
2016-08-05T03:07:20.197Z,22.26
2016-08-05T03:08:20.188Z,22.31
2016-08-05T03:09:20.156Z,22.35
2016-08-05T03:10:20.143Z,22.35
2016-08-05T03:11:20.130Z,22.36
2016-08-05T03:12:20.114Z,22.35
2016-08-05T03:13:20.094Z,22.33
2016-08-05T03:14:19.390Z,22.41
2016-08-05T03:15:20.079Z,22.29
2016-08-05T03:16:20.065Z,22.27
2016-08-05T03:17:20.043Z,22.31
2016-08-05T03:18:20.015Z,22.26
2016-08-05T03:19:20.005Z,22.31
2016-08-05T03:20:19.992Z,22.3
2016-08-05T03:21:19.979Z,22.35
2016-08-05T03:22:19.955Z,22.3
2016-08-05T03:23:19.942Z,22.39
2016-08-05T03:24:19.929Z,22.36
2016-08-05T03:25:19.913Z,22.31
2016-08-05T03:26:19.900Z,22.36
2016-08-05T03:27:19.885Z,22.33
2016-08-05T03:28:19.868Z,22.35
2016-08-05T03:29:19.852Z,22.29
2016-08-05T03:30:19.833Z,22.38
2016-08-05T03:31:19.823Z,22.31
2016-08-05T03:32:19.807Z,22.33
2016-08-05T03:33:19.794Z,22.3
2016-08-05T03:34:19.769Z,22.29
2016-08-05T03:35:19.751Z,22.29
2016-08-05T03:36:19.745Z,22.35
2016-08-05T03:37:19.729Z,22.27
2016-08-05T03:38:18.999Z,22.27
2016-08-05T03:39:19.703Z,22.24
2016-08-05T03:40:19.678Z,22.26
2016-08-05T03:41:19.662Z,22.29
2016-08-05T03:42:18.943Z,22.29
2016-08-05T03:43:19.638Z,22.3
2016-08-05T03:44:19.621Z,22.26
2016-08-05T03:45:18.897Z,22.39
2016-08-05T03:46:19.590Z,22.29
2016-08-05T03:47:19.565Z,22.27
2016-08-05T03:48:18.854Z,22.26
2016-08-05T03:49:19.538Z,22.35
2016-08-05T03:50:19.529Z,22.35
2016-08-05T03:51:19.504Z,22.33
2016-08-05T03:52:18.776Z,22.24
2016-08-05T03:53:18.767Z,22.29
2016-08-05T03:54:19.466Z,22.3
2016-08-05T03:55:19.446Z,22.35
2016-08-05T03:56:18.724Z,22.27
2016-08-05T03:57:19.416Z,22.31
2016-08-05T03:58:18.691Z,22.29
2016-08-05T03:59:19.382Z,22.3
2016-08-05T04:00:19.366Z,22.38
2016-08-05T04:01:19.367Z,22.29
2016-08-05T04:02:19.343Z,22.35
2016-08-05T04:03:19.329Z,22.31
2016-08-05T04:04:19.302Z,22.24
2016-08-05T04:05:19.294Z,22.29
2016-08-05T04:06:19.278Z,22.36
2016-08-05T04:07:19.267Z,22.31
2016-08-05T04:08:19.249Z,22.36
2016-08-05T04:09:19.233Z,22.31
2016-08-05T04:10:19.220Z,22.29
2016-08-05T04:11:19.199Z,22.26
2016-08-05T04:12:19.189Z,22.26
2016-08-05T04:13:19.171Z,22.23
2016-08-05T04:14:19.151Z,22.3
2016-08-05T04:15:19.135Z,22.3
2016-08-05T04:16:19.140Z,22.27
2016-08-05T04:17:18.401Z,22.31
2016-08-05T04:18:19.085Z,22.36
2016-08-05T04:19:19.074Z,22.35
2016-08-05T04:20:19.074Z,22.33
2016-08-05T04:21:19.050Z,22.31
2016-08-05T04:22:18.332Z,22.29
2016-08-05T04:23:19.021Z,22.26
2016-08-05T04:24:19.004Z,22.36
2016-08-05T04:25:18.985Z,22.31
2016-08-05T04:26:18.264Z,22.29
2016-08-05T04:27:18.967Z,22.36
2016-08-05T04:28:18.227Z,22.33
2016-08-05T04:29:18.919Z,22.26
2016-08-05T04:30:18.904Z,22.35
2016-08-05T04:31:18.176Z,22.27
2016-08-05T04:32:18.876Z,22.31
2016-08-05T04:33:18.853Z,22.3
2016-08-05T04:34:18.851Z,22.26
2016-08-05T04:35:18.835Z,22.36
2016-08-05T04:36:18.096Z,22.33
2016-08-05T04:37:18.791Z,22.29
2016-08-05T04:38:18.075Z,22.31
2016-08-05T04:39:18.049Z,22.35
2016-08-05T04:40:18.754Z,22.31
2016-08-05T04:41:18.734Z,22.31
2016-08-05T04:42:18.721Z,22.29
2016-08-05T04:43:18.704Z,22.27
2016-08-05T04:44:18.689Z,22.23
2016-08-05T04:45:18.680Z,22.27
2016-08-05T04:46:18.658Z,22.23
2016-08-05T04:47:18.634Z,22.29
2016-08-05T04:48:18.629Z,22.23
2016-08-05T04:49:18.605Z,22.3
2016-08-05T04:50:18.590Z,22.21
2016-08-05T04:51:18.570Z,22.31
2016-08-05T04:52:18.566Z,22.3
2016-08-05T04:53:18.542Z,22.27
2016-08-05T04:54:18.547Z,22.21
2016-08-05T04:55:18.518Z,22.23
2016-08-05T04:56:18.496Z,22.35
2016-08-05T04:57:18.479Z,22.35
2016-08-05T04:58:18.480Z,22.29
2016-08-05T04:59:18.450Z,22.29
2016-08-05T05:00:18.435Z,22.21
2016-08-05T05:01:18.424Z,22.35
2016-08-05T05:02:18.399Z,22.26
2016-08-05T05:03:18.393Z,22.24
2016-08-05T05:04:18.370Z,22.31
2016-08-05T05:05:17.646Z,22.29
2016-08-05T05:06:18.341Z,22.26
2016-08-05T05:07:18.327Z,22.24
2016-08-05T05:08:18.313Z,22.29
2016-08-05T05:09:18.300Z,22.31
2016-08-05T05:10:18.273Z,22.23
2016-08-05T05:11:18.265Z,22.23
2016-08-05T05:12:18.250Z,22.19
2016-08-05T05:13:18.227Z,22.29
2016-08-05T05:14:18.215Z,22.21
2016-08-05T05:15:18.232Z,22.33
2016-08-05T05:16:18.186Z,22.27
2016-08-05T05:17:17.457Z,22.35
2016-08-05T05:18:18.160Z,22.29
2016-08-05T05:19:17.427Z,22.35
2016-08-05T05:20:18.131Z,22.35
2016-08-05T05:21:18.107Z,22.24
2016-08-05T05:22:18.099Z,22.19
2016-08-05T05:23:18.089Z,22.24
2016-08-05T05:24:18.064Z,22.31
2016-08-05T05:25:18.047Z,22.33
2016-08-05T05:26:18.032Z,22.3
2016-08-05T05:27:18.017Z,22.29
2016-08-05T05:28:18.001Z,22.33
2016-08-05T05:29:17.991Z,22.35
2016-08-05T05:30:17.962Z,22.24
2016-08-05T05:31:17.945Z,22.26
2016-08-05T05:32:17.929Z,22.24
2016-08-05T05:33:17.923Z,22.24
2016-08-05T05:34:17.908Z,22.36
2016-08-05T05:35:17.895Z,22.19
2016-08-05T05:36:17.884Z,22.26
2016-08-05T05:37:17.858Z,22.26
2016-08-05T05:38:17.838Z,22.35
2016-08-05T05:39:17.823Z,22.33
2016-08-05T05:40:17.100Z,22.33
2016-08-05T05:41:17.798Z,22.24
2016-08-05T05:42:17.791Z,22.2
2016-08-05T05:43:17.763Z,22.29
2016-08-05T05:44:17.761Z,22.24
2016-08-05T05:45:17.735Z,22.24
2016-08-05T05:46:17.713Z,22.29
2016-08-05T05:47:17.706Z,22.3
2016-08-05T05:48:17.702Z,22.23
2016-08-05T05:49:17.681Z,22.26
2016-08-05T05:50:17.655Z,22.21
2016-08-05T05:51:17.653Z,22.3
2016-08-05T05:52:17.627Z,22.29
2016-08-05T05:53:17.620Z,22.27
2016-08-05T05:54:17.590Z,22.3
2016-08-05T05:55:17.579Z,22.3
2016-08-05T05:56:17.560Z,22.35
2016-08-05T05:57:17.565Z,22.29
2016-08-05T05:58:17.536Z,22.27
2016-08-05T05:59:16.808Z,22.3
2016-08-05T06:00:17.508Z,22.3
2016-08-05T06:01:17.499Z,22.29
2016-08-05T06:02:17.485Z,22.2
2016-08-05T06:03:17.467Z,22.17
2016-08-05T06:04:16.729Z,22.21
2016-08-05T06:05:17.428Z,22.29
2016-08-05T06:06:17.408Z,22.29
2016-08-05T06:07:17.391Z,22.29
2016-08-05T06:08:17.389Z,22.23
2016-08-05T06:09:17.373Z,22.27
2016-08-05T06:10:16.639Z,22.24
2016-08-05T06:11:16.638Z,22.29
2016-08-05T06:12:17.317Z,22.26
2016-08-05T06:13:17.301Z,22.26
2016-08-05T06:14:17.294Z,22.24
2016-08-05T06:15:17.275Z,22.26
2016-08-05T06:16:17.264Z,22.31
2016-08-05T06:17:17.243Z,22.24
2016-08-05T06:18:17.222Z,22.29
2016-08-05T06:19:17.203Z,22.26
2016-08-05T06:20:17.189Z,22.15
2016-08-05T06:21:16.468Z,22.24
2016-08-05T06:22:17.162Z,22.26
2016-08-05T06:23:17.145Z,22.21
2016-08-05T06:24:17.120Z,22.27
2016-08-05T06:25:17.111Z,22.23
2016-08-05T06:27:17.081Z,22.33
2016-08-05T06:28:17.060Z,22.29
2016-08-05T06:29:16.334Z,22.24
2016-08-05T06:30:17.043Z,22.27
2016-08-05T06:31:17.021Z,22.33
2016-08-05T06:32:16.994Z,22.27
2016-08-05T06:33:16.989Z,22.2
2016-08-05T06:34:16.965Z,22.24
2016-08-05T06:35:16.956Z,22.31
2016-08-05T06:36:16.932Z,22.27
2016-08-05T06:37:16.936Z,22.3
2016-08-05T06:38:16.922Z,22.26
2016-08-05T06:39:16.910Z,22.21
2016-08-05T06:40:16.878Z,22.23
2016-08-05T06:42:16.845Z,22.27
2016-08-05T06:43:16.834Z,22.27
2016-08-05T06:44:16.816Z,22.27
2016-08-05T06:45:16.809Z,22.26
2016-08-05T06:46:16.798Z,22.17
2016-08-05T06:47:16.773Z,22.2
2016-08-05T06:48:16.751Z,22.33
2016-08-05T06:49:16.734Z,22.21
2016-08-05T06:50:16.720Z,22.31
2016-08-05T06:51:16.704Z,22.33
2016-08-05T06:52:16.698Z,22.35
2016-08-05T06:53:16.671Z,22.23
2016-08-05T06:54:16.658Z,22.3
2016-08-05T06:55:16.652Z,22.27
2016-08-05T06:57:16.619Z,22.3
2016-08-05T06:58:16.601Z,22.27
2016-08-05T06:59:16.574Z,22.21
2016-08-05T07:00:16.561Z,22.33
2016-08-05T07:01:16.556Z,22.26
2016-08-05T07:02:15.822Z,22.36
2016-08-05T07:03:16.526Z,22.24
2016-08-05T07:04:16.504Z,22.2
2016-08-05T07:05:16.478Z,22.19
2016-08-05T07:06:16.463Z,22.26
2016-08-05T07:07:16.454Z,22.26
2016-08-05T07:08:16.433Z,22.27
2016-08-05T07:09:16.422Z,22.33
2016-08-05T07:10:16.408Z,22.3
2016-08-05T07:12:16.370Z,22.2
2016-08-05T07:13:16.387Z,22.36
2016-08-05T07:14:16.349Z,22.31
2016-08-05T07:15:16.334Z,22.31
2016-08-05T07:16:16.316Z,22.31
2016-08-05T07:17:16.305Z,22.3
2016-08-05T07:18:16.280Z,22.31
2016-08-05T07:19:16.275Z,22.3
2016-08-05T07:20:16.252Z,22.27
2016-08-05T07:21:16.230Z,22.38
2016-08-05T07:22:16.216Z,22.21
2016-08-05T07:23:16.205Z,21.96
2016-08-05T07:24:16.201Z,21.67
2016-08-05T07:25:16.169Z,21.58
2016-08-05T07:27:15.428Z,21.43
2016-08-05T07:28:16.125Z,21.34
2016-08-05T07:29:16.114Z,21.3
2016-08-05T07:30:15.395Z,21.19
2016-08-05T07:31:16.077Z,21.22
2016-08-05T07:32:16.075Z,21.3
2016-08-05T07:33:16.059Z,21.24
2016-08-05T07:34:16.037Z,21.26
2016-08-05T07:35:16.014Z,21.12
2016-08-05T07:36:15.303Z,21.13
2016-08-05T07:37:15.984Z,21.12
2016-08-05T07:38:15.965Z,21.12
2016-08-05T07:39:15.951Z,21.13
2016-08-05T07:40:15.946Z,21.12
2016-08-05T07:41:15.921Z,21.18
2016-08-05T07:42:15.912Z,21.06
2016-08-05T07:43:15.889Z,21.13
2016-08-05T07:44:15.874Z,21.08
2016-08-05T07:45:15.858Z,21.16
2016-08-05T07:46:15.856Z,21.08
2016-08-05T07:47:15.822Z,21.09
2016-08-05T07:48:15.814Z,21.16
2016-08-05T07:49:15.789Z,21.15
2016-08-05T07:50:15.776Z,21.21
2016-08-05T07:51:15.763Z,21.36
2016-08-05T07:52:15.745Z,21.48
2016-08-05T07:53:15.731Z,21.58
2016-08-05T07:54:15.710Z,21.66
2016-08-05T07:55:15.713Z,21.75
2016-08-05T07:56:15.685Z,21.85
2016-08-05T07:57:15.666Z,21.93
2016-08-05T07:58:15.650Z,21.94
2016-08-05T07:59:14.922Z,21.99
2016-08-05T08:00:15.621Z,22.05
2016-08-05T08:01:14.184Z,22.08
2016-08-05T08:02:15.596Z,22.09
2016-08-05T08:03:14.874Z,22.06
2016-08-05T08:04:15.554Z,22.08
2016-08-05T08:05:15.551Z,22.06
2016-08-05T08:06:15.541Z,22.09
2016-08-05T08:07:15.502Z,22.08
2016-08-05T08:08:15.500Z,22.06
2016-08-05T08:09:15.508Z,22.14
2016-08-05T08:10:15.469Z,22.11
2016-08-05T08:11:15.452Z,22.02
2016-08-05T08:12:15.435Z,22.01
2016-08-05T08:13:15.416Z,22.08
2016-08-05T08:14:15.398Z,22.02
2016-08-05T08:15:15.393Z,22.11
2016-08-05T08:16:15.366Z,22.06
2016-08-05T08:17:15.349Z,22.09
2016-08-05T08:18:15.328Z,22.05
2016-08-05T08:19:15.321Z,22.09
2016-08-05T08:20:15.296Z,22.09
2016-08-05T08:21:15.287Z,22.06
2016-08-05T08:22:15.275Z,22.05
2016-08-05T08:23:15.249Z,22.09
2016-08-05T08:24:15.230Z,22.02
2016-08-05T08:25:15.235Z,21.99
2016-08-05T08:26:15.205Z,22.04
2016-08-05T08:27:15.196Z,22.02
2016-08-05T08:28:15.175Z,22.04
2016-08-05T08:29:15.162Z,22.04
2016-08-05T08:30:15.142Z,22.04
2016-08-05T08:31:15.129Z,22.01
2016-08-05T08:32:15.108Z,22.01
2016-08-05T08:33:14.389Z,22.08
2016-08-05T08:34:15.083Z,22.01
2016-08-05T08:35:15.068Z,21.98
2016-08-05T08:36:15.051Z,22.04
2016-08-05T08:37:15.029Z,22.01
2016-08-05T08:38:15.018Z,21.99
2016-08-05T08:39:14.996Z,22.04
2016-08-05T08:40:14.281Z,22.04
2016-08-05T08:41:14.963Z,22.06
2016-08-05T08:42:14.953Z,22.02
2016-08-05T08:43:14.937Z,22.06
2016-08-05T08:44:14.924Z,22.12
2016-08-05T08:45:14.908Z,22.12
2016-08-05T08:46:14.884Z,22.14
2016-08-05T08:47:14.868Z,22.08
2016-08-05T08:48:14.846Z,22.11
2016-08-05T08:49:14.134Z,22.21
2016-08-05T08:50:14.839Z,22.24
2016-08-05T08:51:14.810Z,22.17
2016-08-05T08:52:14.798Z,22.29
2016-08-05T08:53:14.067Z,22.3
2016-08-05T08:54:14.767Z,22.26
2016-08-05T08:55:14.751Z,22.3
2016-08-05T08:56:14.735Z,22.21
2016-08-05T08:57:14.716Z,22.31
2016-08-05T08:58:14.705Z,22.33
2016-08-05T08:59:14.684Z,22.27
2016-08-05T09:00:14.667Z,22.33
2016-08-05T09:01:14.648Z,22.3
2016-08-05T09:02:14.633Z,22.31
2016-08-05T09:03:13.909Z,22.27
2016-08-05T09:04:13.900Z,22.36
2016-08-05T09:05:14.584Z,22.36
2016-08-05T09:06:14.578Z,22.31
2016-08-05T09:07:13.840Z,22.35
2016-08-05T09:08:14.542Z,22.42
2016-08-05T09:09:14.527Z,22.35
2016-08-05T09:10:14.508Z,22.35
2016-08-05T09:11:13.790Z,22.44
2016-08-05T09:12:14.482Z,22.42
2016-08-05T09:13:14.459Z,22.44
2016-08-05T09:14:14.448Z,22.42
2016-08-05T09:15:14.433Z,22.41
2016-08-05T09:16:14.424Z,22.36
2016-08-05T09:17:14.399Z,22.31
2016-08-05T09:18:14.386Z,22.39
2016-08-05T09:19:14.364Z,22.33
2016-08-05T09:20:14.362Z,22.35
2016-08-05T09:21:14.341Z,22.29
2016-08-05T09:22:14.323Z,22.31
2016-08-05T09:23:14.305Z,22.36
2016-08-05T09:24:14.302Z,22.31
2016-08-05T09:25:14.278Z,22.27
2016-08-05T09:26:14.266Z,22.3
2016-08-05T09:27:14.243Z,22.38
2016-08-05T09:28:14.233Z,22.3
2016-08-05T09:29:14.212Z,22.35
2016-08-05T09:30:14.205Z,22.39
2016-08-05T09:31:14.181Z,22.38
2016-08-05T09:32:14.159Z,22.35
2016-08-05T09:33:14.156Z,22.41
2016-08-05T09:34:13.418Z,22.44
2016-08-05T09:35:14.109Z,22.27
2016-08-05T09:36:14.110Z,22.02
2016-08-05T09:37:14.083Z,21.59
2016-08-05T09:38:14.069Z,21.52
2016-08-05T09:39:14.057Z,21.55
2016-08-05T09:40:14.026Z,21.52
2016-08-05T09:41:14.018Z,21.55
2016-08-05T09:42:14.017Z,21.46
2016-08-05T09:43:14.004Z,21.21
2016-08-05T09:44:13.971Z,21.13
2016-08-05T09:45:13.966Z,21.11
2016-08-05T09:46:13.940Z,21.16
2016-08-05T09:47:13.933Z,21.26
2016-08-05T09:48:13.919Z,21.06
2016-08-05T09:49:13.902Z,20.96
2016-08-05T09:50:13.880Z,20.96
2016-08-05T09:51:13.864Z,20.94
2016-08-05T09:52:13.851Z,20.91
2016-08-05T09:53:13.832Z,20.98
2016-08-05T09:54:13.820Z,21.03
2016-08-05T09:55:13.804Z,21.13
2016-08-05T09:56:13.776Z,21.19
2016-08-05T09:57:13.761Z,21.34
2016-08-05T09:58:13.760Z,21.4
2016-08-05T09:59:13.734Z,21.43
2016-08-05T10:00:13.017Z,21.51
2016-08-05T10:01:13.000Z,21.55
2016-08-05T10:02:13.686Z,21.52
2016-08-05T10:03:13.676Z,21.58
2016-08-05T10:04:13.663Z,21.49
2016-08-05T10:05:13.642Z,21.55
2016-08-05T10:06:13.624Z,21.56
2016-08-05T10:07:13.608Z,21.51
2016-08-05T10:08:13.596Z,21.49
2016-08-05T10:09:13.574Z,21.53
2016-08-05T10:10:13.555Z,21.63
2016-08-05T10:11:13.549Z,21.56
2016-08-05T10:12:12.814Z,21.58
2016-08-05T10:13:13.511Z,21.55
2016-08-05T10:14:13.486Z,21.53
2016-08-05T10:15:13.481Z,21.52
2016-08-05T10:16:13.462Z,21.55
2016-08-05T10:17:13.445Z,21.61
2016-08-05T10:18:13.433Z,21.56
2016-08-05T10:19:13.434Z,21.59
2016-08-05T10:20:13.403Z,21.63
2016-08-05T10:21:13.381Z,21.66
2016-08-05T10:22:13.376Z,21.63
2016-08-05T10:23:13.348Z,21.7
2016-08-05T10:24:13.334Z,21.66
2016-08-05T10:25:13.332Z,21.67
2016-08-05T10:26:13.303Z,21.67
2016-08-05T10:27:13.295Z,21.73
2016-08-05T10:28:13.267Z,21.73
2016-08-05T10:29:13.258Z,21.75
2016-08-05T10:30:13.241Z,21.73
2016-08-05T10:31:12.520Z,21.81
2016-08-05T10:32:13.214Z,21.79
2016-08-05T10:33:13.203Z,21.71
2016-08-05T10:34:13.189Z,21.75
2016-08-05T10:35:13.162Z,21.82
2016-08-05T10:36:13.141Z,21.91
2016-08-05T10:37:13.128Z,21.83
2016-08-05T10:38:12.404Z,21.96
2016-08-05T10:39:12.388Z,21.94
2016-08-05T10:40:12.374Z,21.98
2016-08-05T10:41:13.066Z,21.98
2016-08-05T10:42:13.054Z,21.98
2016-08-05T10:43:13.027Z,21.98
2016-08-05T10:44:13.020Z,21.94
2016-08-05T10:45:13.005Z,21.93
2016-08-05T10:46:12.988Z,21.82
2016-08-05T10:47:12.728Z,21.86
2016-08-05T10:48:12.258Z,21.83
2016-08-05T10:49:12.934Z,21.93
2016-08-05T10:50:12.916Z,21.86
2016-08-05T10:51:12.185Z,21.99
2016-08-05T10:52:12.880Z,21.79
2016-08-05T10:53:12.876Z,21.89
2016-08-05T10:54:12.852Z,21.89
2016-08-05T10:55:12.835Z,21.83
2016-08-05T10:56:12.826Z,21.77
2016-08-05T10:57:12.811Z,21.74
2016-08-05T10:58:12.799Z,21.86
2016-08-05T10:59:12.770Z,21.85
2016-08-05T11:00:12.759Z,21.86
2016-08-05T11:01:12.745Z,21.86
2016-08-05T11:02:12.726Z,21.98
2016-08-05T11:03:12.717Z,22.08
2016-08-05T11:04:12.699Z,22.09
2016-08-05T11:05:12.677Z,22.09
2016-08-05T11:06:12.673Z,22.12
2016-08-05T11:07:12.667Z,22.2
2016-08-05T11:08:12.641Z,22.27
2016-08-05T11:09:12.643Z,22.14
2016-08-05T11:10:12.607Z,22.2
2016-08-05T11:11:12.603Z,22.24
2016-08-05T11:12:12.567Z,22.2
2016-08-05T11:13:12.562Z,22.35
2016-08-05T11:14:12.546Z,22.39
2016-08-05T11:15:12.541Z,22.45
2016-08-05T11:16:12.509Z,22.48
2016-08-05T11:17:12.501Z,22.51
2016-08-05T11:18:12.473Z,22.45
2016-08-05T11:19:12.449Z,22.54
2016-08-05T11:20:11.733Z,22.59
2016-08-05T11:21:11.729Z,22.54
2016-08-05T11:22:12.404Z,22.57
2016-08-05T11:23:12.403Z,22.57
2016-08-05T11:24:12.392Z,22.56
2016-08-05T11:25:12.384Z,22.51
2016-08-05T11:26:12.353Z,22.49
2016-08-05T11:27:12.339Z,22.6
2016-08-05T11:28:12.310Z,22.6
2016-08-05T11:29:12.321Z,22.57
2016-08-05T11:30:12.283Z,22.57
2016-08-05T11:31:11.572Z,22.69
2016-08-05T11:32:12.262Z,22.72
2016-08-05T11:33:12.242Z,22.7
2016-08-05T11:34:11.554Z,22.67
2016-08-05T11:35:12.207Z,22.79
2016-08-05T11:36:12.204Z,22.78
2016-08-05T11:37:12.188Z,22.84
2016-08-05T11:38:12.170Z,22.85
2016-08-05T11:39:12.156Z,22.84
2016-08-05T11:40:12.135Z,22.81
2016-08-05T11:41:11.403Z,22.82
2016-08-05T11:42:12.106Z,22.86
2016-08-05T11:43:12.085Z,22.86
2016-08-05T11:44:12.070Z,22.86
2016-08-05T11:45:12.054Z,22.88
2016-08-05T11:46:12.038Z,22.84
2016-08-05T11:47:12.016Z,22.86
2016-08-05T11:48:12.016Z,22.89
2016-08-05T11:49:11.982Z,22.89
2016-08-05T11:50:11.977Z,22.88
2016-08-05T11:51:11.240Z,23.03
2016-08-05T11:52:11.940Z,23.01
2016-08-05T11:53:11.926Z,23.06
2016-08-05T11:54:11.923Z,23.01
2016-08-05T11:55:11.918Z,22.97
2016-08-05T11:56:11.889Z,23.09
2016-08-05T11:57:10.690Z,23.15
2016-08-05T11:58:11.852Z,22.97
2016-08-05T11:59:11.125Z,23.03
2016-08-05T12:00:11.827Z,22.96
2016-08-05T12:01:11.807Z,23.04
2016-08-05T12:02:11.787Z,23.06
2016-08-05T12:03:11.068Z,23.12
2016-08-05T12:04:11.760Z,23
2016-08-05T12:05:11.751Z,23.04
2016-08-05T12:06:11.714Z,22.99
2016-08-05T12:07:11.704Z,23.04
2016-08-05T12:08:11.691Z,23.14
2016-08-05T12:09:11.671Z,23.11
2016-08-05T12:10:11.654Z,23.01
2016-08-05T12:11:11.636Z,23
2016-08-05T12:12:10.701Z,23.11
2016-08-05T12:13:11.622Z,23
2016-08-05T12:14:11.592Z,23.03
2016-08-05T12:15:11.589Z,22.99
2016-08-05T12:16:11.560Z,22.99
2016-08-05T12:17:11.547Z,23.04
2016-08-05T12:18:11.529Z,22.99
2016-08-05T12:19:11.512Z,23.03
2016-08-05T12:20:11.499Z,23.01
2016-08-05T12:21:11.490Z,23.01
2016-08-05T12:22:11.470Z,23.06
2016-08-05T12:23:11.447Z,23.03
2016-08-05T12:24:11.448Z,23.09
2016-08-05T12:25:11.434Z,23
2016-08-05T12:26:11.409Z,23
2016-08-05T12:27:11.399Z,23.07
2016-08-05T12:28:11.385Z,23
2016-08-05T12:29:11.369Z,22.99
2016-08-05T12:30:11.347Z,22.99
2016-08-05T12:31:11.328Z,23
2016-08-05T12:32:10.605Z,23
2016-08-05T12:33:11.303Z,23.03
2016-08-05T12:34:11.283Z,23.01
2016-08-05T12:35:11.272Z,22.97
2016-08-05T12:36:11.248Z,22.88
2016-08-05T12:37:11.236Z,22.99
2016-08-05T12:38:11.226Z,22.93
2016-08-05T12:39:11.213Z,22.88
2016-08-05T12:40:11.189Z,22.84
2016-08-05T12:41:11.182Z,22.85
2016-08-05T12:42:11.165Z,22.89
2016-08-05T12:43:11.149Z,22.85
2016-08-05T12:44:10.425Z,22.81
2016-08-05T12:45:11.113Z,22.85
2016-08-05T12:46:10.386Z,22.89
2016-08-05T12:47:11.094Z,22.88
2016-08-05T12:48:11.068Z,22.85
2016-08-05T12:49:11.058Z,22.81
2016-08-05T12:50:11.045Z,22.79
2016-08-05T12:51:11.029Z,22.67
2016-08-05T12:52:11.017Z,22.82
2016-08-05T12:53:11.000Z,22.78
2016-08-05T12:54:10.439Z,22.82
2016-08-05T12:55:10.977Z,22.72
2016-08-05T12:56:10.951Z,22.74
2016-08-05T12:57:10.922Z,22.74
2016-08-05T12:58:10.928Z,22.76
2016-08-05T12:59:10.902Z,22.78
2016-08-05T13:00:10.883Z,22.78
2016-08-05T13:01:10.866Z,22.69
2016-08-05T13:02:10.864Z,22.64
2016-08-05T13:03:10.839Z,22.67
2016-08-05T13:04:10.836Z,22.59
2016-08-05T13:05:10.807Z,22.56
2016-08-05T13:06:10.080Z,22.46